Etusivu
METAR-TAF:

METAR-TAF

Lentoasemat :

La Rochelle, Ranska

Leveyspiiri: 46-10-45N, Pituuspiiri: 1-11-43W, korkeus merenpinnasta: 23 m

Tämänhetkinen sää

Tämä raportti tehtiin 29 minuuttia sitten, kello 21.30 UTC
Tuuli 5 kn lännestä/luoteesta
Lämpötila 20°C
Kosteus 88%
Ilmanpaine 1019 hPa
Näkyvyys 10 km tai enemmän
ei pilviä alle 1500 m:ssä eikä cumulonimbus-pilviä

METAR: LFBH 222130Z AUTO 30005KT CAVOK 20/18 Q1019 NOSIG

Aika: 23:59 (21:59 UTC)

Sääennuste

Tämä raportti tehtiin 4 tuntia ja 59 minuuttia sitten, kello 17.00 UTC
Ennuste voimassa 22. päivästä klo 18 UTC - 23. päivään klo 18 UTC
Tuuli 12 kn lännestä/luoteesta
Näkyvyys 10 km tai enemmän
ei pilviä alle 1500 m:ssä eikä cumulonimbus-pilviä
Tulossa
22. päivästä klo 22 UTC - 22. päivään klo 24 UTC
Tuuli 5 kn pohjoisesta
Tulossa
23. päivästä klo 10 UTC - 23. päivään klo 12 UTC
Tuuli 10 kn lännestä/luoteesta

TAF: LFBH 221700Z 2218/2318 30012KT CAVOK BECMG 2222/2224 36005KT BECMG 2310/2312 30010KT

Säähavainnot ja -ennusteet yli 4000 lentoasemalta (METAR- ja TAF-raportit).

Käytössä olevat sääasemat on merkitty karttaan keltaisilla ja punaisilla pisteillä.

Aseta hiiri pisteen päälle nähdäksesi sääaseman nimen.

Klikkaa sitten nähdäksesi säähavainnot ja -ennusteet.

Kartan vaihtaminen: klikkaa mustalla rastilla varustettuja vihreitä pisteitä, niin voit zoomata sisään; viivalla varustettua vihreää pistettä, niin voit zoomata ulos tai vihreitä nuolia, niin pääset viereisille kartoille.


METAR-TAF: